Time;durP1;ratioP1;P1;durP2;ratioP2;P2;SDS_P1;SDS_P2;PMS_P1;PMS_P2;Temp;Humidity;BMP_temperature;BMP_pressure;BME280_temperature;BME280_humidity;BME280_pressure;Samples;Min_cycle;Max_cycle;Signal;HPM_P1;HPM_P2
2022/07/12 00:01:31;;;;;;;1.73;0.68;;;23.80;47.10;;;;;;5003358;28;20041;-47
2022/07/12 00:03:57;;;;;;;0.93;0.50;;;23.80;47.10;;;;;;5004379;28;20600;-46
2022/07/12 00:06:23;;;;;;;1.50;0.60;;;23.80;47.10;;;;;;5002370;28;20731;-49
2022/07/12 00:08:48;;;;;;;1.30;0.57;;;23.70;47.10;;;;;;5004686;28;20660;-46
2022/07/12 00:11:14;;;;;;;1.95;0.70;;;23.80;47.20;;;;;;5004955;28;20033;-46
2022/07/12 00:13:39;;;;;;;1.40;0.75;;;23.70;47.20;;;;;;5005030;28;20026;-47
2022/07/12 00:16:05;;;;;;;1.30;0.50;;;23.70;47.20;;;;;;5004420;28;20585;-47
2022/07/12 00:18:31;;;;;;;0.80;0.50;;;23.70;47.20;;;;;;5003924;28;20933;-47
2022/07/12 00:20:57;;;;;;;1.63;0.77;;;23.80;47.30;;;;;;5002671;28;20050;-46
2022/07/12 00:23:23;;;;;;;0.90;0.60;;;23.70;47.30;;;;;;5004873;28;20441;-46
2022/07/12 00:25:49;;;;;;;1.60;0.70;;;23.70;47.30;;;;;;5004543;28;20018;-47
2022/07/12 00:28:15;;;;;;;1.33;0.70;;;23.70;47.20;;;;;;5004017;28;20022;-47
2022/07/12 00:30:41;;;;;;;1.33;0.60;;;23.70;47.20;;;;;;5004188;28;20021;-47
2022/07/12 00:33:06;;;;;;;1.30;0.63;;;23.70;47.30;;;;;;5004481;28;20026;-47
2022/07/12 00:35:32;;;;;;;1.45;0.60;;;23.70;47.40;;;;;;5004180;28;20695;-47
2022/07/12 00:37:58;;;;;;;1.73;0.50;;;23.70;47.30;;;;;;5000073;28;20034;-47
2022/07/12 00:40:23;;;;;;;0.75;0.47;;;23.70;47.40;;;;;;5004259;28;20042;-48
2022/07/12 00:42:49;;;;;;;1.10;0.57;;;23.70;47.20;;;;;;5004533;28;20018;-47
2022/07/12 00:45:15;;;;;;;1.52;0.55;;;23.70;47.30;;;;;;5004134;28;20014;-47
2022/07/12 00:47:46;;;;;;;0.77;0.43;;;23.70;47.30;;;;;;5004340;28;20744;-47
2022/07/12 00:50:17;;;;;;;1.48;0.52;;;23.70;47.30;;;;;;5025749;28;20433;-47
2022/07/12 00:52:44;;;;;;;1.02;0.55;;;23.70;47.30;;;;;;5001882;28;20022;-46
2022/07/12 00:55:11;;;;;;;2.42;0.70;;;23.70;47.30;;;;;;5003431;28;20022;-47
2022/07/12 00:57:38;;;;;;;0.68;0.50;;;23.70;47.40;;;;;;5004290;28;20018;-47
2022/07/12 01:00:09;;;;;;;1.63;0.50;;;23.70;47.30;;;;;;5001598;28;20642;-47
2022/07/12 01:02:36;;;;;;;1.42;0.65;;;23.70;47.30;;;;;;5003641;28;20068;-47
2022/07/12 01:05:03;;;;;;;1.73;0.60;;;23.70;47.40;;;;;;5002088;28;20110;-47
2022/07/12 01:07:29;;;;;;;1.08;0.43;;;23.70;47.40;;;;;;5002180;28;20097;-47
2022/07/12 01:09:55;;;;;;;1.17;0.60;;;23.70;47.40;;;;;;5003920;28;20882;-47
2022/07/12 01:12:23;;;;;;;0.95;0.50;;;23.70;47.40;;;;;;5003113;28;20042;-47
2022/07/12 01:14:50;;;;;;;1.65;0.70;;;23.70;47.50;;;;;;5003169;28;20030;-46
2022/07/12 01:17:23;;;;;;;0.82;0.50;;;23.70;47.40;;;;;;5003884;28;20108;-47
2022/07/12 01:19:49;;;;;;;0.80;0.50;;;23.70;47.40;;;;;;5002122;28;20045;-46
2022/07/12 01:22:17;;;;;;;1.00;0.50;;;23.70;47.40;;;;;;5001941;28;20033;-46
2022/07/12 01:24:46;;;;;;;0.93;0.50;;;23.70;47.50;;;;;;5002481;28;20419;-47
2022/07/12 01:27:13;;;;;;;1.42;0.47;;;23.70;47.40;;;;;;5001772;28;20045;-46
2022/07/12 01:29:39;;;;;;;1.30;0.43;;;23.70;47.40;;;;;;5001708;28;20022;-46
2022/07/12 01:32:24;;;;;;;0.63;0.50;;;23.70;47.50;;;;;;5003111;28;20076;-46
2022/07/12 01:35:01;;;;;;;1.50;0.70;;;23.70;47.60;;;;;;5001425;28;20663;-48
2022/07/12 01:37:37;;;;;;;1.65;0.50;;;23.70;47.80;;;;;;5000482;28;20026;-51
2022/07/12 01:40:05;;;;;;;1.23;0.68;;;23.70;47.60;;;;;;5002076;28;20045;-47
2022/07/12 01:42:31;;;;;;;0.70;0.40;;;23.70;47.50;;;;;;5003435;28;20088;-47
2022/07/12 01:44:58;;;;;;;1.70;0.70;;;23.70;47.60;;;;;;5001543;28;20097;-47
2022/07/12 01:47:27;;;;;;;2.03;0.60;;;23.70;47.60;;;;;;5002370;28;20030;-47
2022/07/12 01:49:53;;;;;;;1.02;0.52;;;23.70;47.50;;;;;;5000865;28;20075;-48
2022/07/12 01:52:19;;;;;;;1.05;0.55;;;23.70;47.50;;;;;;5001989;28;20026;-47
2022/07/12 01:54:45;;;;;;;1.30;0.55;;;23.70;47.50;;;;;;5003424;28;20434;-47
2022/07/12 01:57:11;;;;;;;1.60;0.60;;;23.70;47.40;;;;;;5003207;28;20112;-47
2022/07/12 01:59:39;;;;;;;1.48;0.60;;;23.70;47.40;;;;;;5003139;28;20029;-48
2022/07/12 02:02:05;;;;;;;0.85;0.50;;;23.70;47.40;;;;;;5002902;28;20253;-47
2022/07/12 02:04:30;;;;;;;1.33;0.75;;;23.70;47.40;;;;;;5004006;28;20017;-48
2022/07/12 02:06:57;;;;;;;1.15;0.50;;;23.70;47.40;;;;;;5001120;28;20018;-48
2022/07/12 02:09:23;;;;;;;1.10;0.40;;;23.70;47.40;;;;;;5003055;28;20549;-48
2022/07/12 02:11:49;;;;;;;1.55;0.50;;;23.70;47.40;;;;;;5001819;28;20544;-48
2022/07/12 02:14:15;;;;;;;1.33;0.60;;;23.70;47.30;;;;;;5003283;28;20098;-46
2022/07/12 02:16:42;;;;;;;1.60;0.65;;;23.60;47.30;;;;;;5001348;28;20025;-46
2022/07/12 02:19:09;;;;;;;1.02;0.60;;;23.60;47.20;;;;;;5002873;28;20053;-48
2022/07/12 02:21:34;;;;;;;1.27;0.65;;;23.60;47.30;;;;;;5001081;28;20692;-47
2022/07/12 02:24:01;;;;;;;0.90;0.38;;;23.60;47.30;;;;;;5001382;28;20033;-46
2022/07/12 02:26:27;;;;;;;1.98;0.65;;;23.60;47.20;;;;;;5003377;28;20032;-47
2022/07/12 02:28:52;;;;;;;1.55;0.75;;;23.60;47.20;;;;;;5002706;28;20064;-48
2022/07/12 02:31:18;;;;;;;1.02;0.47;;;23.60;47.30;;;;;;5003107;28;20058;-47
2022/07/12 02:33:44;;;;;;;0.82;0.50;;;23.60;47.20;;;;;;5002641;28;20064;-47
2022/07/12 02:36:09;;;;;;;1.15;0.50;;;23.70;47.40;;;;;;5001240;28;20029;-47
2022/07/12 02:38:35;;;;;;;2.15;0.60;;;23.60;47.30;;;;;;5002664;28;20041;-47
2022/07/12 02:41:01;;;;;;;0.95;0.57;;;23.60;47.30;;;;;;5002769;28;20720;-48
2022/07/12 02:43:28;;;;;;;0.68;0.43;;;23.60;47.30;;;;;;5002213;28;20044;-48
2022/07/12 02:46:02;;;;;;;1.10;0.50;;;23.60;47.30;;;;;;5002446;28;20034;-47
2022/07/12 02:48:28;;;;;;;2.97;0.98;;;23.60;47.30;;;;;;5002042;28;20022;-48
2022/07/12 02:50:53;;;;;;;1.27;0.60;;;23.60;47.30;;;;;;5001910;28;20045;-48
2022/07/12 02:53:19;;;;;;;1.35;0.68;;;23.60;47.20;;;;;;5002349;28;20116;-47
2022/07/12 02:55:45;;;;;;;1.45;0.60;;;23.60;47.20;;;;;;5002066;28;20017;-48
2022/07/12 02:58:11;;;;;;;1.15;0.60;;;23.60;47.20;;;;;;5003354;28;20109;-47
2022/07/12 03:00:38;;;;;;;1.05;0.60;;;23.60;47.20;;;;;;5005429;28;20030;-47
2022/07/12 03:03:07;;;;;;;1.33;0.70;;;23.60;47.20;;;;;;5006409;28;20093;-47
2022/07/12 03:05:33;;;;;;;0.98;0.60;;;23.60;47.30;;;;;;5006058;28;20022;-48
2022/07/12 03:07:59;;;;;;;1.20;0.60;;;23.60;47.20;;;;;;5004949;28;20088;-47
2022/07/12 03:10:25;;;;;;;1.85;0.60;;;23.60;47.10;;;;;;5006759;28;20018;-47
2022/07/12 03:12:50;;;;;;;1.92;0.52;;;23.60;47.10;;;;;;5005898;28;20025;-47
2022/07/12 03:15:16;;;;;;;1.00;0.60;;;23.60;47.10;;;;;;5005845;28;20490;-48
2022/07/12 03:17:42;;;;;;;1.13;0.60;;;23.50;47.10;;;;;;5006368;28;20021;-47
2022/07/12 03:20:11;;;;;;;1.45;0.57;;;23.60;47.20;;;;;;5021506;28;20465;-48
2022/07/12 03:22:37;;;;;;;0.90;0.43;;;23.60;47.20;;;;;;5005636;28;20026;-47
2022/07/12 03:25:03;;;;;;;1.13;0.50;;;23.60;47.30;;;;;;5006076;28;20658;-48
2022/07/12 03:27:31;;;;;;;1.10;0.45;;;23.60;47.30;;;;;;5006074;28;20104;-47
2022/07/12 03:29:57;;;;;;;1.33;0.63;;;23.60;47.40;;;;;;5006400;28;20021;-48
2022/07/12 03:32:23;;;;;;;1.10;0.50;;;23.60;47.40;;;;;;5006386;28;20061;-46
2022/07/12 03:34:49;;;;;;;1.45;0.60;;;23.60;47.30;;;;;;5005595;28;20037;-48
2022/07/12 03:37:15;;;;;;;1.38;0.73;;;23.60;47.30;;;;;;5002595;28;20108;-47
2022/07/12 03:39:40;;;;;;;0.93;0.50;;;23.60;47.20;;;;;;5005571;28;20447;-48
2022/07/12 03:42:06;;;;;;;0.88;0.50;;;23.60;47.20;;;;;;5005886;28;20125;-48
2022/07/12 03:44:33;;;;;;;0.98;0.50;;;23.60;47.20;;;;;;5005931;28;20605;-48
2022/07/12 03:46:59;;;;;;;0.68;0.40;;;23.60;47.20;;;;;;5005171;28;20101;-47
2022/07/12 03:49:25;;;;;;;1.20;0.60;;;23.60;47.20;;;;;;5004949;28;20020;-47
2022/07/12 03:51:51;;;;;;;1.10;0.50;;;23.60;47.20;;;;;;5003803;28;20034;-47
2022/07/12 03:54:16;;;;;;;0.85;0.50;;;23.50;47.20;;;;;;5006090;28;20117;-47
2022/07/12 03:59:27;;;;;;;0.93;0.50;;;23.60;47.20;;;;;;5005920;28;20826;-48
2022/07/12 04:01:52;;;;;;;1.48;0.70;;;23.50;47.30;;;;;;5005854;28;20038;-46
2022/07/12 04:04:18;;;;;;;1.52;0.75;;;23.50;47.30;;;;;;5004690;28;20030;-47
2022/07/12 04:06:44;;;;;;;0.95;0.50;;;23.50;47.30;;;;;;5003335;28;20030;-47
2022/07/12 04:09:09;;;;;;;1.13;0.60;;;23.60;47.30;;;;;;5005495;28;20033;-49
2022/07/12 04:11:35;;;;;;;1.10;0.50;;;23.50;47.30;;;;;;5004156;28;20113;-48
2022/07/12 04:14:01;;;;;;;1.38;0.70;;;23.50;47.40;;;;;;5005650;28;20037;-46
2022/07/12 04:16:27;;;;;;;1.05;0.50;;;23.50;47.40;;;;;;5001941;28;20072;-50
2022/07/12 04:18:54;;;;;;;1.15;0.60;;;23.50;47.40;;;;;;5003799;28;20038;-47
2022/07/12 04:21:19;;;;;;;1.67;0.50;;;23.50;47.40;;;;;;5002466;28;20038;-48
2022/07/12 04:23:45;;;;;;;1.42;0.70;;;23.50;47.40;;;;;;5004891;28;20560;-47
2022/07/12 04:26:11;;;;;;;1.08;0.50;;;23.50;47.40;;;;;;5004393;28;20021;-47
2022/07/12 04:28:37;;;;;;;0.90;0.45;;;23.50;47.40;;;;;;5005845;28;20026;-47
2022/07/12 04:31:02;;;;;;;0.80;0.40;;;23.50;47.40;;;;;;5005358;28;20513;-47
2022/07/12 04:33:28;;;;;;;0.77;0.40;;;23.50;47.30;;;;;;5004981;28;20032;-49
2022/07/12 04:35:54;;;;;;;0.52;0.40;;;23.50;47.30;;;;;;5005004;28;20061;-48
2022/07/12 04:38:20;;;;;;;0.95;0.50;;;23.50;47.30;;;;;;5002741;28;20084;-46
2022/07/12 04:40:46;;;;;;;1.20;0.60;;;23.50;47.30;;;;;;5004699;28;20057;-48
2022/07/12 04:43:12;;;;;;;1.40;0.70;;;23.50;47.30;;;;;;5004198;28;20113;-47
2022/07/12 04:45:37;;;;;;;1.60;0.70;;;23.50;47.30;;;;;;5002642;28;20010;-47
2022/07/12 04:48:03;;;;;;;1.33;0.70;;;23.50;47.30;;;;;;5004839;28;20509;-48
2022/07/12 04:50:29;;;;;;;1.38;0.50;;;23.50;47.30;;;;;;5003778;28;20080;-48
2022/07/12 04:52:55;;;;;;;2.08;0.57;;;23.50;47.30;;;;;;5003027;28;20097;-47
2022/07/12 04:55:20;;;;;;;1.55;0.70;;;23.50;47.30;;;;;;5003786;28;20379;-48
2022/07/12 04:57:46;;;;;;;0.63;0.47;;;23.60;47.40;;;;;;5004711;28;20736;-46
2022/07/12 05:00:13;;;;;;;1.00;0.50;;;23.50;47.40;;;;;;5004327;28;20041;-47
2022/07/12 05:02:38;;;;;;;0.80;0.40;;;23.50;47.40;;;;;;5002647;28;20103;-47
2022/07/12 05:05:05;;;;;;;1.10;0.50;;;23.50;47.30;;;;;;5003520;28;20026;-47
2022/07/12 05:07:30;;;;;;;1.52;0.50;;;23.50;47.30;;;;;;5002465;28;20036;-47
2022/07/12 05:09:57;;;;;;;1.15;0.50;;;23.50;47.30;;;;;;5003903;28;20105;-48
2022/07/12 05:12:22;;;;;;;1.15;0.60;;;23.50;47.30;;;;;;5003940;28;20034;-48
2022/07/12 05:14:48;;;;;;;0.60;0.40;;;23.50;47.40;;;;;;5003027;28;20030;-48
2022/07/12 05:17:14;;;;;;;1.60;0.55;;;23.50;47.40;;;;;;5003108;28;20379;-48
2022/07/12 05:19:40;;;;;;;0.80;0.47;;;23.50;47.40;;;;;;5004093;28;20757;-48
2022/07/12 05:22:05;;;;;;;1.13;0.60;;;23.50;47.50;;;;;;5001454;28;20033;-48
2022/07/12 05:24:31;;;;;;;1.73;0.80;;;23.50;47.60;;;;;;5003934;28;20181;-48
2022/07/12 05:26:57;;;;;;;1.65;0.73;;;23.50;47.80;;;;;;5001880;28;20034;-47
2022/07/12 05:29:22;;;;;;;1.20;0.60;;;23.50;47.80;;;;;;5002898;28;20109;-47
2022/07/12 05:31:48;;;;;;;2.53;0.68;;;23.50;48.00;;;;;;4997832;28;20108;-47
2022/07/12 05:34:14;;;;;;;1.33;0.60;;;23.50;48.10;;;;;;5002597;28;20099;-46
2022/07/12 05:36:40;;;;;;;1.50;0.45;;;23.50;48.20;;;;;;5000992;28;20765;-47
2022/07/12 05:39:05;;;;;;;1.77;0.70;;;23.50;48.20;;;;;;5002416;28;20041;-51
2022/07/12 05:41:31;;;;;;;1.90;0.65;;;23.60;48.20;;;;;;5002893;28;20033;-47
2022/07/12 05:43:57;;;;;;;2.63;0.88;;;23.60;48.20;;;;;;5003527;28;20104;-48
2022/07/12 05:46:23;;;;;;;1.77;0.60;;;23.60;48.20;;;;;;5002722;28;20026;-49
2022/07/12 05:48:48;;;;;;;1.75;0.85;;;23.60;48.20;;;;;;5003058;28;20041;-48
2022/07/12 05:53:58;;;;;;;1.60;0.80;;;23.60;48.30;;;;;;5004583;28;20026;-47
2022/07/12 05:56:24;;;;;;;1.63;0.80;;;23.60;48.50;;;;;;4999040;28;20026;-47
2022/07/12 05:58:50;;;;;;;3.33;0.95;;;23.60;48.50;;;;;;5003211;28;20065;-47
2022/07/12 06:01:16;;;;;;;2.08;0.70;;;23.60;48.70;;;;;;5002340;28;20120;-46
2022/07/12 06:03:42;;;;;;;1.45;0.70;;;23.60;48.80;;;;;;5003607;28;20029;-47
2022/07/12 06:06:08;;;;;;;2.00;0.57;;;23.60;49.70;;;;;;5001599;28;20398;-48
2022/07/12 06:08:34;;;;;;;2.13;0.85;;;23.60;49.40;;;;;;5003140;28;20100;-46
2022/07/12 06:10:59;;;;;;;2.35;0.93;;;23.60;50.10;;;;;;5003142;28;20037;-48
2022/07/12 06:13:25;;;;;;;1.88;0.73;;;23.60;50.30;;;;;;5002721;28;20022;-48
2022/07/12 06:15:51;;;;;;;1.25;0.63;;;23.70;49.60;;;;;;4998042;28;20041;-48
2022/07/12 06:18:17;;;;;;;2.67;0.77;;;23.70;49.20;;;;;;5000537;28;20034;-46
2022/07/12 06:20:43;;;;;;;1.92;0.85;;;23.70;48.80;;;;;;5000157;28;20049;-48
2022/07/12 06:23:09;;;;;;;2.65;1.08;;;23.70;48.30;;;;;;5000749;28;20057;-48
2022/07/12 06:25:35;;;;;;;2.47;0.90;;;23.70;48.20;;;;;;5000677;28;20600;-48
2022/07/12 06:28:04;;;;;;;2.90;0.70;;;23.70;47.80;;;;;;5001963;28;20042;-49
2022/07/12 06:30:30;;;;;;;1.30;0.57;;;23.70;47.60;;;;;;4995819;28;20117;-47
2022/07/12 06:32:56;;;;;;;2.80;0.80;;;23.60;47.10;;;;;;4996120;28;20109;-48
2022/07/12 06:35:22;;;;;;;2.42;0.65;;;23.60;47.30;;;;;;5000850;28;20022;-48
2022/07/12 06:37:47;;;;;;;2.40;0.80;;;23.60;47.10;;;;;;5000722;28;20453;-47
2022/07/12 06:40:16;;;;;;;1.88;0.73;;;23.70;47.40;;;;;;5002212;28;20236;-47
2022/07/12 06:42:43;;;;;;;1.10;0.50;;;23.60;47.50;;;;;;5002454;28;20041;-47
2022/07/12 06:45:09;;;;;;;1.60;0.60;;;23.60;47.50;;;;;;5001749;28;20149;-48
2022/07/12 06:47:35;;;;;;;2.55;0.70;;;23.70;47.60;;;;;;5000465;28;20026;-48
2022/07/12 06:50:01;;;;;;;1.50;0.60;;;23.70;47.70;;;;;;5001560;28;20018;-47
2022/07/12 06:52:27;;;;;;;2.20;0.65;;;23.70;47.90;;;;;;5008952;28;20025;-47
2022/07/12 06:54:53;;;;;;;1.50;0.60;;;23.70;48.10;;;;;;5022404;28;20083;-48
2022/07/12 06:57:19;;;;;;;2.03;0.57;;;23.70;48.10;;;;;;5022461;28;20414;-47
2022/07/12 06:59:44;;;;;;;1.30;0.50;;;23.70;48.20;;;;;;5019992;28;20034;-47
2022/07/12 07:02:10;;;;;;;1.40;0.70;;;23.70;48.30;;;;;;5002940;28;20479;-48
2022/07/12 07:04:36;;;;;;;1.67;0.70;;;23.70;48.40;;;;;;5003284;28;20022;-48
2022/07/12 07:07:01;;;;;;;2.00;0.73;;;23.70;48.50;;;;;;5002678;28;20022;-47
2022/07/12 07:09:27;;;;;;;1.23;0.60;;;23.70;48.50;;;;;;5003168;28;20724;-48
2022/07/12 07:11:53;;;;;;;2.08;0.90;;;23.70;48.50;;;;;;5003710;28;20048;-47
2022/07/12 07:14:19;;;;;;;1.42;0.50;;;23.70;48.50;;;;;;5003441;28;20117;-47
2022/07/12 07:16:45;;;;;;;1.10;0.60;;;23.70;48.60;;;;;;5002436;28;20030;-47
2022/07/12 07:19:10;;;;;;;1.17;0.50;;;23.70;48.50;;;;;;5002829;28;20041;-48
2022/07/12 07:21:36;;;;;;;1.25;0.50;;;23.70;48.60;;;;;;5003280;28;20481;-47
2022/07/12 07:24:03;;;;;;;1.35;0.50;;;23.70;48.60;;;;;;5023231;28;20111;-47
2022/07/12 07:26:29;;;;;;;1.25;0.55;;;23.70;48.70;;;;;;5022380;28;20033;-47
2022/07/12 07:31:39;;;;;;;0.73;0.50;;;23.70;48.60;;;;;;5023168;28;20079;-47
2022/07/12 07:34:05;;;;;;;1.27;0.50;;;23.70;48.70;;;;;;5022871;28;20433;-47
2022/07/12 07:36:31;;;;;;;1.35;0.60;;;23.70;48.70;;;;;;4999908;28;20080;-47
2022/07/12 07:38:58;;;;;;;1.55;0.60;;;23.70;48.80;;;;;;4995196;28;20096;-47
2022/07/12 07:41:23;;;;;;;1.20;0.60;;;23.70;48.70;;;;;;5002688;28;20130;-47
2022/07/12 07:43:49;;;;;;;1.17;0.47;;;23.70;48.80;;;;;;5003356;28;20030;-47
2022/07/12 07:46:15;;;;;;;1.23;0.38;;;23.70;48.80;;;;;;5001392;28;20058;-47
2022/07/12 07:48:41;;;;;;;1.55;0.40;;;23.70;48.90;;;;;;5002245;28;20083;-47
2022/07/12 07:51:06;;;;;;;1.10;0.50;;;23.70;48.90;;;;;;5001313;28;20453;-48
2022/07/12 07:53:32;;;;;;;1.75;0.90;;;23.80;48.90;;;;;;5008586;28;20065;-48
2022/07/12 07:55:58;;;;;;;1.48;0.65;;;23.80;49.00;;;;;;5004497;28;20025;-48
2022/07/12 07:58:24;;;;;;;1.23;0.50;;;23.80;48.90;;;;;;4998210;28;20127;-47
2022/07/12 08:00:50;;;;;;;1.42;0.60;;;23.80;48.90;;;;;;5005710;28;20040;-48
2022/07/12 08:03:17;;;;;;;1.35;0.47;;;23.80;48.90;;;;;;5005213;28;20030;-47
2022/07/12 08:05:42;;;;;;;1.08;0.50;;;23.80;48.90;;;;;;5005937;28;20084;-47
2022/07/12 08:08:08;;;;;;;1.73;0.50;;;23.80;48.90;;;;;;5005675;28;20559;-47
2022/07/12 08:10:34;;;;;;;1.85;0.60;;;23.80;48.90;;;;;;5005690;28;20045;-47
2022/07/12 08:12:59;;;;;;;1.23;0.45;;;23.80;48.90;;;;;;5005389;28;20106;-47
2022/07/12 08:15:26;;;;;;;1.50;0.60;;;23.80;49.00;;;;;;5005424;28;20494;-47
2022/07/12 08:17:52;;;;;;;1.20;0.52;;;23.80;49.00;;;;;;5037872;28;20018;-47
2022/07/12 08:20:18;;;;;;;1.42;0.50;;;23.80;49.00;;;;;;5005708;28;20030;-49
2022/07/12 08:22:45;;;;;;;0.88;0.40;;;23.80;49.00;;;;;;5014160;28;20216;-49
2022/07/12 08:25:11;;;;;;;0.77;0.40;;;23.80;49.00;;;;;;5025033;28;20036;-47
2022/07/12 08:27:36;;;;;;;1.50;0.50;;;23.80;49.00;;;;;;5026084;28;20108;-47
2022/07/12 08:30:02;;;;;;;1.58;0.57;;;23.90;49.00;;;;;;5025519;28;20553;-48
2022/07/12 08:32:28;;;;;;;2.10;0.50;;;23.80;48.90;;;;;;5025714;28;20029;-47
2022/07/12 08:34:54;;;;;;;1.67;0.80;;;23.80;48.90;;;;;;5024860;28;20658;-48
2022/07/12 08:37:19;;;;;;;1.17;0.60;;;23.90;49.10;;;;;;5017933;28;20033;-47
2022/07/12 08:39:45;;;;;;;1.60;0.47;;;23.80;48.90;;;;;;5005394;28;20573;-46
2022/07/12 08:42:15;;;;;;;1.88;0.50;;;23.80;48.90;;;;;;5005593;28;20521;-47
2022/07/12 08:44:40;;;;;;;1.05;0.45;;;23.80;48.90;;;;;;5005353;28;20049;-48
2022/07/12 08:47:09;;;;;;;1.27;0.40;;;23.80;48.90;;;;;;4998816;28;20030;-47
2022/07/12 08:49:38;;;;;;;1.02;0.52;;;23.80;48.90;;;;;;4999233;28;20026;-47
2022/07/12 08:52:30;;;;;;;1.08;0.45;;;23.80;48.90;;;;;;5000339;28;20045;-46
2022/07/12 08:54:55;;;;;;;0.38;0.35;;;23.80;48.90;;;;;;4996370;28;20030;-47
2022/07/12 08:57:31;;;;;;;0.88;0.43;;;23.80;49.00;;;;;;5001992;28;20429;-47
2022/07/12 09:00:01;;;;;;;2.03;0.60;;;23.90;49.10;;;;;;5002013;28;20137;-48
2022/07/12 09:02:27;;;;;;;0.80;0.30;;;23.90;49.20;;;;;;5003342;28;20546;-46
2022/07/12 09:05:11;;;;;;;0.95;0.50;;;23.90;49.40;;;;;;5001126;28;20271;-46
2022/07/12 09:07:37;;;;;;;2.13;0.63;;;23.90;49.30;;;;;;4996023;28;20036;-48
2022/07/12 09:10:07;;;;;;;0.90;0.40;;;23.90;49.40;;;;;;5003659;28;20034;-47
2022/07/12 09:12:34;;;;;;;1.35;0.50;;;23.90;49.50;;;;;;5003097;28;20041;-48
2022/07/12 09:15:16;;;;;;;0.85;0.47;;;23.90;49.50;;;;;;4984362;28;20737;-47
2022/07/12 09:17:53;;;;;;;0.93;0.40;;;23.90;49.60;;;;;;5001225;28;20064;-47
2022/07/12 09:20:19;;;;;;;1.70;0.50;;;23.90;49.80;;;;;;5003864;28;20521;-47
2022/07/12 09:22:53;;;;;;;1.27;0.50;;;23.80;49.70;;;;;;5003768;28;20030;-49
2022/07/12 09:25:19;;;;;;;1.30;0.50;;;23.90;49.80;;;;;;5003880;28;20068;-47
2022/07/12 09:27:50;;;;;;;0.73;0.40;;;23.90;49.80;;;;;;5003957;28;20603;-48
2022/07/12 09:30:16;;;;;;;0.90;0.40;;;23.90;49.70;;;;;;5003345;28;20135;-48
2022/07/12 09:38:24;;;;;;;1.15;0.47;;;23.90;49.60;;;;;;5004079;28;20065;-47
2022/07/12 09:40:50;;;;;;;1.20;0.50;;;23.90;49.50;;;;;;5004273;28;20044;-47
2022/07/12 09:43:17;;;;;;;1.45;0.30;;;23.90;49.60;;;;;;5004182;28;20101;-48
2022/07/12 09:45:44;;;;;;;0.75;0.43;;;23.90;49.50;;;;;;5004378;28;20025;-47
2022/07/12 09:48:13;;;;;;;0.73;0.40;;;24.00;49.50;;;;;;5004155;28;20026;-47
2022/07/12 09:50:40;;;;;;;0.73;0.30;;;23.90;49.50;;;;;;5003975;28;20018;-48
2022/07/12 09:53:09;;;;;;;1.55;0.73;;;23.90;49.50;;;;;;5006708;28;20056;-47
2022/07/12 09:55:39;;;;;;;1.13;0.40;;;24.00;49.50;;;;;;5011721;28;20092;-47
2022/07/12 09:58:07;;;;;;;1.48;0.63;;;24.00;49.50;;;;;;5004130;28;20401;-46
2022/07/12 10:00:34;;;;;;;2.08;0.40;;;24.00;49.50;;;;;;5003424;28;20037;-48
2022/07/12 10:03:00;;;;;;;1.13;0.60;;;24.00;49.50;;;;;;5003944;28;20057;-47
2022/07/12 10:05:27;;;;;;;1.80;0.60;;;24.00;49.40;;;;;;5003612;28;20025;-47
2022/07/12 10:07:53;;;;;;;1.08;0.40;;;24.00;49.40;;;;;;5002462;28;20091;-47
2022/07/12 10:10:19;;;;;;;1.08;0.40;;;24.00;49.30;;;;;;5001990;28;20675;-47
2022/07/12 10:12:45;;;;;;;0.65;0.38;;;24.00;49.30;;;;;;5003951;28;20038;-46
2022/07/12 10:15:17;;;;;;;0.73;0.38;;;24.00;49.20;;;;;;5003178;28;20033;-47
2022/07/12 10:17:56;;;;;;;0.88;0.30;;;24.00;49.20;;;;;;5004094;28;20053;-47
2022/07/12 10:20:23;;;;;;;0.95;0.40;;;24.00;49.20;;;;;;5004019;28;20032;-47
2022/07/12 10:22:53;;;;;;;1.23;0.40;;;24.10;49.20;;;;;;5002199;28;20034;-47
2022/07/12 10:25:33;;;;;;;1.10;0.50;;;24.00;49.10;;;;;;5003059;28;20510;-48
2022/07/12 10:28:02;;;;;;;1.15;0.40;;;24.00;49.10;;;;;;5004033;28;20282;-47
2022/07/12 10:30:30;;;;;;;0.73;0.30;;;24.00;49.10;;;;;;5003876;28;20026;-47
2022/07/12 10:32:58;;;;;;;0.77;0.32;;;24.00;49.10;;;;;;5003871;28;20053;-47
2022/07/12 10:35:27;;;;;;;1.00;0.30;;;24.00;49.10;;;;;;5003340;28;20026;-48
2022/07/12 10:38:11;;;;;;;1.30;0.45;;;24.00;49.10;;;;;;5003130;28;20025;-48
2022/07/12 10:40:36;;;;;;;0.85;0.40;;;24.00;49.10;;;;;;5003222;28;20038;-48
2022/07/12 10:43:05;;;;;;;2.00;0.35;;;24.00;49.10;;;;;;5003975;28;20030;-48
2022/07/12 10:45:39;;;;;;;0.93;0.40;;;24.10;49.20;;;;;;5003081;28;20311;-47
2022/07/12 10:48:29;;;;;;;1.33;0.45;;;24.10;49.20;;;;;;5003305;28;20034;-47
2022/07/12 10:50:56;;;;;;;0.63;0.32;;;24.00;49.10;;;;;;5003720;28;20042;-47
2022/07/12 10:53:22;;;;;;;1.38;0.40;;;24.10;49.10;;;;;;5009227;28;20136;-48
2022/07/12 10:56:06;;;;;;;0.77;0.40;;;24.00;49.00;;;;;;5009188;28;20085;-47
2022/07/12 10:58:37;;;;;;;2.20;0.38;;;24.00;49.00;;;;;;5003442;28;20033;-48
2022/07/12 11:01:11;;;;;;;0.30;0.17;;;24.00;49.00;;;;;;5003172;28;20041;-48
2022/07/12 11:04:08;;;;;;;1.35;0.40;;;24.00;48.90;;;;;;5003929;28;20026;-47
2022/07/12 11:06:40;;;;;;;2.08;0.50;;;24.00;48.80;;;;;;5003008;28;20018;-47
2022/07/12 11:09:09;;;;;;;1.02;0.20;;;24.00;48.80;;;;;;5002622;28;20034;-48
2022/07/12 11:11:48;;;;;;;1.77;0.40;;;24.00;48.90;;;;;;5003315;28;20049;-48
2022/07/12 11:14:20;;;;;;;0.73;0.30;;;24.00;48.90;;;;;;5004130;28;20492;-48
2022/07/12 11:16:47;;;;;;;0.55;0.30;;;24.00;48.90;;;;;;5003425;28;20038;-47
2022/07/12 11:19:14;;;;;;;0.85;0.30;;;24.00;48.90;;;;;;5003059;28;20041;-48
2022/07/12 11:21:44;;;;;;;0.85;0.50;;;24.00;48.90;;;;;;5005896;28;20095;-47
2022/07/12 11:24:21;;;;;;;0.57;0.30;;;24.00;48.90;;;;;;5019346;28;20079;-47
2022/07/12 11:26:48;;;;;;;0.28;0.13;;;24.00;48.90;;;;;;5025642;28;20069;-47
2022/07/12 11:29:14;;;;;;;1.15;0.30;;;24.10;49.00;;;;;;5026714;28;20033;-47
2022/07/12 11:31:39;;;;;;;1.75;0.73;;;24.00;48.90;;;;;;5026535;28;20030;-47
2022/07/12 11:34:05;;;;;;;0.65;0.30;;;24.00;48.90;;;;;;5026861;28;20030;-53
2022/07/12 11:36:32;;;;;;;0.70;0.28;;;24.00;48.90;;;;;;5026267;28;20026;-47
2022/07/12 11:38:57;;;;;;;0.90;0.30;;;24.00;48.90;;;;;;5009712;28;20117;-47
2022/07/12 11:41:24;;;;;;;0.63;0.30;;;24.10;49.00;;;;;;5006616;28;20181;-46
2022/07/12 11:43:50;;;;;;;0.70;0.30;;;24.10;49.00;;;;;;5006847;28;20083;-47
2022/07/12 11:46:16;;;;;;;0.70;0.43;;;24.10;49.00;;;;;;5006482;28;20029;-54
2022/07/12 11:48:42;;;;;;;0.98;0.40;;;24.10;48.90;;;;;;5006976;28;20022;-47
2022/07/12 11:51:13;;;;;;;1.17;0.30;;;24.10;49.00;;;;;;5006267;28;20025;-47
2022/07/12 11:53:40;;;;;;;0.60;0.32;;;24.10;48.90;;;;;;5014160;28;20048;-47
2022/07/12 11:56:07;;;;;;;0.55;0.30;;;24.10;48.90;;;;;;5009787;28;20119;-48
2022/07/12 11:58:37;;;;;;;1.05;0.40;;;24.10;48.90;;;;;;5006249;28;20092;-48
2022/07/12 12:01:03;;;;;;;1.20;0.38;;;24.10;48.90;;;;;;5006285;28;20033;-48
2022/07/12 12:03:29;;;;;;;0.75;0.30;;;24.10;48.90;;;;;;5006455;28;20026;-47
2022/07/12 12:05:56;;;;;;;0.60;0.30;;;24.10;48.90;;;;;;5005854;28;20109;-48
2022/07/12 12:08:23;;;;;;;0.60;0.20;;;24.10;48.90;;;;;;5005971;28;20026;-48
2022/07/12 12:10:59;;;;;;;0.73;0.30;;;24.10;48.90;;;;;;5006520;28;20038;-47
2022/07/12 12:13:27;;;;;;;0.40;0.20;;;24.10;48.90;;;;;;5006398;28;20156;-46
2022/07/12 12:15:58;;;;;;;1.17;0.35;;;24.10;48.90;;;;;;5005408;28;20682;-47
2022/07/12 12:18:34;;;;;;;0.30;0.22;;;24.10;48.90;;;;;;5005780;28;20496;-48
2022/07/12 12:21:06;;;;;;;0.93;0.30;;;24.10;48.90;;;;;;5005603;28;20018;-48
2022/07/12 12:23:32;;;;;;;0.32;0.20;;;24.10;48.90;;;;;;5005004;28;20105;-47
2022/07/12 12:26:23;;;;;;;0.47;0.30;;;24.10;48.90;;;;;;5004927;28;20029;-47
2022/07/12 12:28:50;;;;;;;0.70;0.30;;;24.10;48.90;;;;;;5000342;28;20040;-48
2022/07/12 12:31:20;;;;;;;0.55;0.30;;;24.10;48.90;;;;;;5005480;28;20026;-48
2022/07/12 12:33:47;;;;;;;0.82;0.30;;;24.10;48.90;;;;;;5005173;28;20421;-47
2022/07/12 12:36:18;;;;;;;0.82;0.30;;;24.10;48.90;;;;;;5005315;28;20025;-47
2022/07/12 12:38:45;;;;;;;0.63;0.30;;;24.10;48.90;;;;;;5001217;28;20558;-48
2022/07/12 12:41:11;;;;;;;0.70;0.30;;;24.10;48.90;;;;;;4999773;28;20105;-47
2022/07/12 12:43:37;;;;;;;0.77;0.28;;;24.10;48.80;;;;;;5004253;28;20026;-48
2022/07/12 12:46:04;;;;;;;1.13;0.40;;;24.10;48.80;;;;;;4998166;28;20208;-48
2022/07/12 12:48:30;;;;;;;0.55;0.30;;;24.10;48.80;;;;;;5000358;28;20113;-48
2022/07/12 12:51:03;;;;;;;1.38;0.40;;;24.10;48.80;;;;;;4999342;28;20030;-47
2022/07/12 12:53:29;;;;;;;1.80;0.30;;;24.10;48.90;;;;;;4999196;28;20030;-48
2022/07/12 12:55:56;;;;;;;1.25;0.40;;;24.10;49.00;;;;;;5000220;28;20696;-48
2022/07/12 12:58:24;;;;;;;2.85;0.57;;;24.10;49.40;;;;;;5001075;28;20022;-48
2022/07/12 13:00:53;;;;;;;1.55;0.40;;;24.10;49.40;;;;;;5002846;28;21362;-48
2022/07/12 13:03:21;;;;;;;2.67;0.40;;;24.00;49.20;;;;;;4999442;28;20029;-47